Thunder radar more information blitzortung!


Radar de pluja more information rain snow radar


Visita la nostra xarxa de llocs de meteo:

Template documentation
and downloads

And another site



No particular awareness of the weather is required.    There are no Weather-warnings

Pagina Historial Weather Underground text

Diari Resum Juny 2, 2016 Unitats:  Mètric    Imperial   Tant
« Previous Dia
SegĂźent Dia »
Diari Setmana Mensual Anual Personalitzada
  Maxima: Minima: Media:
Temperatura: 25.7 °C 11.8 °C 20.3 °C
Punt de rosada: 12.9 °C 8.1 °C 10.5 °C
Humitat: 82 % 38 % 55 %
Wind Speed: 20.6 km/h 0.0 km/h 6.6 km/h
RĂ fegues de vent: 20.6 km/h - -
Vent:- - SSE
Pression baro: 1017.8 hPa 1010.7 hPa -
Precipitacions: 0.0 mm    
Historical Graphs
 
 
Dades de taula per Juny 2, 2016
Temps Temperatura Punt de rosada Pression baro Vent Wind Speed RĂ fegues de vent Humitat Rainfall Rate (Hourly)
00:05 13.0 °C 9.1 °C 1016.8 hPa WSW 1.6 km/h 3.2 km/h 77 % 0.0 mm
00:15 12.9 °C 9.2 °C 1016.8 hPa Calm     78 % 0.0 mm
00:25 12.9 °C 9.3 °C 1016.8 hPa WSW 1.6 km/h 1.6 km/h 79 % 0.0 mm
00:35 12.8 °C 9.2 °C 1016.8 hPa Calm     79 % 0.0 mm
00:45 12.5 °C 8.8 °C 1016.8 hPa Calm   1.6 km/h 78 % 0.0 mm
00:55 12.4 °C 8.8 °C 1017.8 hPa Calm     79 % 0.0 mm
01:05 12.2 °C 8.7 °C 1017.8 hPa Calm     79 % 0.0 mm
01:15 12.1 °C 8.6 °C 1017.8 hPa Calm   1.6 km/h 79 % 0.0 mm
01:25 11.9 °C 8.4 °C 1016.8 hPa NE 1.6 km/h 1.6 km/h 79 % 0.0 mm
01:35 11.8 °C 8.1 °C 1017.8 hPa NNE 1.6 km/h 3.2 km/h 78 % 0.0 mm
01:45 11.8 °C 8.3 °C 1017.8 hPa WSW 1.6 km/h 1.6 km/h 79 % 0.0 mm
01:55 11.8 °C 8.4 °C 1017.8 hPa SW 1.6 km/h 1.6 km/h 80 % 0.0 mm
02:05 11.8 °C 8.3 °C 1017.8 hPa SW 3.2 km/h 3.2 km/h 79 % 0.0 mm
02:15 11.9 °C 8.6 °C 1017.8 hPa SW 3.2 km/h 4.8 km/h 80 % 0.0 mm
02:25 12.0 °C 8.8 °C 1017.8 hPa SW 3.2 km/h 3.2 km/h 81 % 0.0 mm
02:35 12.2 °C 9.2 °C 1017.8 hPa Calm   3.2 km/h 82 % 0.0 mm
02:45 12.6 °C 9.6 °C 1017.8 hPa Calm   3.2 km/h 82 % 0.0 mm
02:55 13.1 °C 9.9 °C 1017.8 hPa SW 1.6 km/h 3.2 km/h 81 % 0.0 mm
03:05 13.4 °C 10.2 °C 1017.8 hPa SW 1.6 km/h 1.6 km/h 81 % 0.0 mm
03:15 13.9 °C 10.5 °C 1017.8 hPa South 1.6 km/h 1.6 km/h 80 % 0.0 mm
03:25 14.3 °C 10.7 °C 1017.8 hPa SSW 3.2 km/h 3.2 km/h 79 % 0.0 mm
03:35 14.8 °C 11.2 °C 1017.8 hPa SSW 1.6 km/h 3.2 km/h 79 % 0.0 mm
03:45 15.8 °C 11.9 °C 1017.8 hPa South 3.2 km/h 3.2 km/h 78 % 0.0 mm
03:55 15.7 °C 11.7 °C 1017.8 hPa South 1.6 km/h 3.2 km/h 77 % 0.0 mm
04:05 16.5 °C 12.3 °C 1017.8 hPa SSW 3.2 km/h 3.2 km/h 76 % 0.0 mm
04:25 17.2 °C 12.1 °C 1017.8 hPa ESE 4.8 km/h 6.4 km/h 72 % 0.0 mm
04:35 17.5 °C 12.4 °C 1017.8 hPa SSE 4.8 km/h 4.8 km/h 72 % 0.0 mm
04:45 17.9 °C 12.3 °C 1017.8 hPa SW 1.6 km/h 4.8 km/h 70 % 0.0 mm
04:55 18.3 °C 12.5 °C 1017.8 hPa East 1.6 km/h 6.4 km/h 69 % 0.0 mm
05:05 18.5 °C 12.5 °C 1017.8 hPa South 1.6 km/h 6.4 km/h 68 % 0.0 mm
05:15 18.9 °C 12.4 °C 1017.8 hPa East 3.2 km/h 9.7 km/h 66 % 0.0 mm
05:25 19.2 °C 12.2 °C 1017.8 hPa ENE 3.2 km/h 4.8 km/h 64 % 0.0 mm
05:35 20.5 °C 12.9 °C 1017.8 hPa SE 1.6 km/h 4.8 km/h 62 % 0.0 mm
05:45 20.6 °C 12.3 °C 1017.8 hPa SSW 1.6 km/h 6.4 km/h 59 % 0.0 mm
05:55 20.3 °C 11.8 °C 1017.8 hPa SSE 1.6 km/h 4.8 km/h 58 % 0.0 mm
06:05 20.6 °C 11.8 °C 1017.8 hPa ESE 4.8 km/h 6.4 km/h 57 % 0.0 mm
11:10 20.6 °C 11.8 °C 1017.8 hPa ESE 6.9 km/h 6.9 km/h 57 % 0.0 mm
11:15 20.9 °C 12.1 °C 1017.8 hPa NNE 5.6 km/h 5.6 km/h 57 % 0.0 mm
11:20 21.2 °C 12.1 °C 1016.8 hPa NE 7.4 km/h 7.4 km/h 56 % 0.0 mm
11:25 21.3 °C 12.2 °C 1016.8 hPa NNE 7.4 km/h 7.4 km/h 56 % 0.0 mm
11:30 21.3 °C 11.9 °C 1016.8 hPa NE 5.6 km/h 5.6 km/h 55 % 0.0 mm
11:35 21.2 °C 11.5 °C 1016.8 hPa ESE 9.5 km/h 9.5 km/h 54 % 0.0 mm
11:40 21.5 °C 11.8 °C 1016.8 hPa ESE 7.9 km/h 7.9 km/h 54 % 0.0 mm
11:45 21.6 °C 11.6 °C 1016.8 hPa ENE 8.7 km/h 8.7 km/h 53 % 0.0 mm
11:50 21.6 °C 11.6 °C 1015.8 hPa East 5.8 km/h 5.8 km/h 53 % 0.0 mm
12:00 22.2 °C 11.9 °C 1015.8 hPa ENE 5.6 km/h 5.6 km/h 52 % 0.0 mm
12:05 22.2 °C 11.9 °C 1014.8 hPa South 2.3 km/h 2.3 km/h 52 % 0.0 mm
12:10 22.6 °C 11.9 °C 1014.8 hPa East 7.4 km/h 7.4 km/h 51 % 0.0 mm
12:15 22.9 °C 12.2 °C 1014.8 hPa ESE 9.3 km/h 9.3 km/h 51 % 0.0 mm
12:20 22.9 °C 11.9 °C 1014.8 hPa SW 5.3 km/h 5.3 km/h 50 % 0.0 mm
12:25 24.0 °C 12.6 °C 1014.8 hPa ESE 5.0 km/h 5.0 km/h 49 % 0.0 mm
12:30 23.2 °C 10.9 °C 1014.8 hPa ENE 7.4 km/h 7.4 km/h 46 % 0.0 mm
12:35 22.9 °C 11.6 °C 1014.8 hPa SW 5.0 km/h 5.0 km/h 49 % 0.0 mm
12:40 23.1 °C 11.2 °C 1014.8 hPa SSW 5.6 km/h 5.6 km/h 47 % 0.0 mm
12:45 23.1 °C 11.2 °C 1014.8 hPa WSW 3.7 km/h 3.9 km/h 47 % 0.0 mm
12:50 24.4 °C 11.7 °C 1013.8 hPa South 7.2 km/h 7.2 km/h 45 % 0.0 mm
12:55 24.8 °C 12.1 °C 1013.8 hPa SW 5.0 km/h 5.0 km/h 45 % 0.0 mm
13:00 24.9 °C 12.2 °C 1013.8 hPa WSW 9.7 km/h 9.7 km/h 45 % 0.0 mm
13:05 25.3 °C 11.1 °C 1013.8 hPa South 7.4 km/h 7.4 km/h 41 % 0.0 mm
13:10 25.3 °C 11.1 °C 1013.8 hPa ENE 9.3 km/h 9.3 km/h 41 % 0.0 mm
13:15 25.3 °C 11.1 °C 1013.8 hPa SSW 5.6 km/h 5.6 km/h 41 % 0.0 mm
13:25 25.3 °C 11.1 °C 1013.8 hPa SSW 6.9 km/h 7.2 km/h 41 % 0.0 mm
13:30 25.0 °C 10.8 °C 1013.8 hPa SW 7.4 km/h 7.4 km/h 41 % 0.0 mm
13:35 25.0 °C 10.8 °C 1013.8 hPa SSE 9.3 km/h 9.3 km/h 41 % 0.0 mm
13:45 25.7 °C 11.4 °C 1013.8 hPa South 3.9 km/h 3.9 km/h 41 % 0.0 mm
13:50 25.7 °C 11.4 °C 1012.8 hPa SSE 9.5 km/h 9.5 km/h 41 % 0.0 mm
13:55 25.7 °C 11.4 °C 1012.8 hPa South 11.1 km/h 11.1 km/h 41 % 0.0 mm
14:00 25.3 °C 9.9 °C 1012.8 hPa ESE 13.7 km/h 13.7 km/h 38 % 0.0 mm
14:05 25.2 °C 10.3 °C 1012.8 hPa East 13.0 km/h 13.0 km/h 39 % 0.0 mm
14:10 25.1 °C 10.6 °C 1012.8 hPa East 16.7 km/h 16.7 km/h 40 % 0.0 mm
14:20 24.2 °C 10.5 °C 1011.7 hPa ESE 13.0 km/h 13.0 km/h 42 % 0.0 mm
14:25 24.0 °C 11.0 °C 1011.7 hPa West 14.8 km/h 14.8 km/h 44 % 0.0 mm
14:30 24.8 °C 11.7 °C 1011.7 hPa ESE 11.4 km/h 11.4 km/h 44 % 0.0 mm
14:35 24.5 °C 11.4 °C 1011.7 hPa ESE 7.4 km/h 7.4 km/h 44 % 0.0 mm
14:40 23.8 °C 11.2 °C 1011.7 hPa SSE 13.0 km/h 13.0 km/h 45 % 0.0 mm
14:46 23.9 °C 11.6 °C 1011.7 hPa East 13.0 km/h 13.0 km/h 46 % 0.0 mm
14:56 24.3 °C 12.3 °C 1011.7 hPa WSW 13.0 km/h 13.0 km/h 47 % 0.0 mm
15:01 24.3 °C 12.3 °C 1011.7 hPa WNW 6.4 km/h 6.4 km/h 47 % 0.0 mm
15:06 24.1 °C 12.1 °C 1011.7 hPa South 7.4 km/h 7.4 km/h 47 % 0.0 mm
15:11 23.5 °C 11.6 °C 1011.7 hPa ESE 16.1 km/h 16.1 km/h 47 % 0.0 mm
15:16 23.2 °C 11.3 °C 1011.7 hPa SSW 11.1 km/h 11.1 km/h 47 % 0.0 mm
15:21 23.5 °C 11.6 °C 1011.7 hPa ESE 9.3 km/h 9.3 km/h 47 % 0.0 mm
15:26 23.5 °C 11.6 °C 1011.7 hPa East 9.3 km/h 9.3 km/h 47 % 0.0 mm
15:31 23.8 °C 11.8 °C 1011.7 hPa East 5.6 km/h 5.6 km/h 47 % 0.0 mm
15:36 24.3 °C 12.3 °C 1011.7 hPa ESE 9.3 km/h 9.3 km/h 47 % 0.0 mm
15:41 25.0 °C 12.6 °C 1011.7 hPa ESE 10.0 km/h 10.0 km/h 46 % 0.0 mm
15:46 25.3 °C 12.5 °C 1011.7 hPa SE 16.7 km/h 16.7 km/h 45 % 0.0 mm
15:51 24.4 °C 12.0 °C 1011.7 hPa ESE 13.0 km/h 13.0 km/h 46 % 0.0 mm
15:56 24.3 °C 11.9 °C 1011.7 hPa ESE 16.7 km/h 16.7 km/h 46 % 0.0 mm
16:01 24.1 °C 11.8 °C 1011.7 hPa NE 16.7 km/h 16.7 km/h 46 % 0.0 mm
16:06 24.2 °C 11.8 °C 1011.7 hPa ESE 20.6 km/h 20.6 km/h 46 % 0.0 mm
16:11 23.7 °C 11.4 °C 1011.7 hPa ESE 16.7 km/h 16.7 km/h 46 % 0.0 mm
16:16 23.8 °C 11.5 °C 1011.7 hPa SE 13.0 km/h 13.0 km/h 46 % 0.0 mm
16:21 24.1 °C 11.8 °C 1010.7 hPa ENE 18.5 km/h 18.5 km/h 46 % 0.0 mm
16:26 24.0 °C 11.7 °C 1010.7 hPa ESE 14.8 km/h 14.8 km/h 46 % 0.0 mm
16:31 23.8 °C 11.5 °C 1010.7 hPa ENE 20.4 km/h 20.4 km/h 46 % 0.0 mm
16:36 23.7 °C 11.4 °C 1011.7 hPa ENE 16.7 km/h 16.7 km/h 46 % 0.0 mm
16:41 23.9 °C 11.6 °C 1011.7 hPa East 14.8 km/h 14.8 km/h 46 % 0.0 mm
16:46 23.6 °C 11.3 °C 1011.7 hPa NE 20.4 km/h 20.4 km/h 46 % 0.0 mm
16:51 23.6 °C 11.3 °C 1011.7 hPa ESE 18.5 km/h 18.5 km/h 46 % 0.0 mm
16:56 23.6 °C 11.3 °C 1011.7 hPa East 16.7 km/h 16.7 km/h 46 % 0.0 mm
17:01 23.5 °C 11.2 °C 1011.7 hPa ESE 16.7 km/h 16.7 km/h 46 % 0.0 mm
17:06 23.9 °C 11.6 °C 1011.7 hPa ESE 14.8 km/h 14.8 km/h 46 % 0.0 mm
17:11 24.3 °C 11.9 °C 1011.7 hPa ESE 13.0 km/h 13.0 km/h 46 % 0.0 mm
17:16 24.0 °C 11.7 °C 1011.7 hPa ENE 15.6 km/h 15.6 km/h 46 % 0.0 mm
17:21 23.8 °C 11.5 °C 1011.7 hPa SE 12.6 km/h 12.6 km/h 46 % 0.0 mm
17:26 23.8 °C 11.5 °C 1011.7 hPa ENE 13.0 km/h 13.0 km/h 46 % 0.0 mm
17:31 23.7 °C 11.4 °C 1011.7 hPa East 13.7 km/h 13.7 km/h 46 % 0.0 mm
17:36 24.0 °C 11.7 °C 1012.8 hPa South 7.4 km/h 7.4 km/h 46 % 0.0 mm
17:41 24.3 °C 11.9 °C 1012.8 hPa SW 9.3 km/h 9.3 km/h 46 % 0.0 mm
17:46 24.8 °C 12.1 °C 1012.8 hPa SSW 13.0 km/h 13.0 km/h 45 % 0.0 mm
17:51 25.3 °C 11.8 °C 1011.7 hPa South 7.4 km/h 7.4 km/h 43 % 0.0 mm
17:56 25.0 °C 11.6 °C 1011.7 hPa SSW 13.0 km/h 13.0 km/h 43 % 0.0 mm
18:01 24.7 °C 11.3 °C 1011.7 hPa SSW 7.4 km/h 7.4 km/h 43 % 0.0 mm
18:06 24.6 °C 11.2 °C 1011.7 hPa SW 11.1 km/h 11.1 km/h 43 % 0.0 mm
18:11 24.3 °C 10.9 °C 1011.7 hPa WSW 7.4 km/h 7.4 km/h 43 % 0.0 mm
18:16 24.2 °C 10.8 °C 1011.7 hPa SW 11.1 km/h 11.1 km/h 43 % 0.0 mm
18:21 24.2 °C 10.8 °C 1011.7 hPa SW 10.0 km/h 10.0 km/h 43 % 0.0 mm
18:26 24.2 °C 10.8 °C 1011.7 hPa SSW 14.8 km/h 14.8 km/h 43 % 0.0 mm
18:31 24.0 °C 10.7 °C 1011.7 hPa WSW 13.0 km/h 13.0 km/h 43 % 0.0 mm
18:36 23.5 °C 10.2 °C 1012.8 hPa SW 13.7 km/h 13.7 km/h 43 % 0.0 mm
18:41 23.6 °C 10.3 °C 1012.8 hPa WSW 11.1 km/h 11.1 km/h 43 % 0.0 mm
18:46 23.7 °C 10.7 °C 1012.8 hPa SW 7.4 km/h 7.4 km/h 44 % 0.0 mm
18:51 23.5 °C 10.6 °C 1011.7 hPa WSW 16.7 km/h 16.7 km/h 44 % 0.0 mm
18:56 23.5 °C 10.2 °C 1011.7 hPa SW 11.1 km/h 11.1 km/h 43 % 0.0 mm
19:01 23.2 °C 9.9 °C 1011.7 hPa SW 11.1 km/h 11.1 km/h 43 % 0.0 mm
19:06 23.2 °C 9.9 °C 1011.7 hPa WSW 7.4 km/h 10.0 km/h 43 % 0.0 mm
19:11 23.1 °C 9.8 °C 1011.7 hPa SW 11.1 km/h 11.1 km/h 43 % 0.0 mm
19:16 23.2 °C 9.9 °C 1011.7 hPa SW 9.3 km/h 9.3 km/h 43 % 0.0 mm
19:21 22.8 °C 9.9 °C 1011.7 hPa WSW 7.4 km/h 7.4 km/h 44 % 0.0 mm
19:31 22.7 °C 9.8 °C 1011.7 hPa SW 9.3 km/h 9.3 km/h 44 % 0.0 mm
19:36 22.6 °C 9.7 °C 1011.7 hPa SSW 7.4 km/h 7.4 km/h 44 % 0.0 mm
19:41 22.4 °C 9.9 °C 1011.7 hPa SSW 9.3 km/h 9.3 km/h 45 % 0.0 mm
19:46 22.3 °C 9.8 °C 1011.7 hPa SW 9.5 km/h 9.5 km/h 45 % 0.0 mm
19:51 22.2 °C 9.7 °C 1011.7 hPa SW 13.0 km/h 13.0 km/h 45 % 0.0 mm
19:56 22.1 °C 9.6 °C 1011.7 hPa SSW 13.0 km/h 13.0 km/h 45 % 0.0 mm
20:01 22.0 °C 9.5 °C 1011.7 hPa SW 9.3 km/h 9.3 km/h 45 % 0.0 mm
20:05 16.8 °C 11.1 °C 1012.8 hPa ENE 1.6 km/h   69 % 0.0 mm
20:06 22.0 °C 9.5 °C 1011.7 hPa SSW 7.4 km/h 7.4 km/h 45 % 0.0 mm
20:11 21.8 °C 9.7 °C 1011.7 hPa SSW 9.3 km/h 9.3 km/h 46 % 0.0 mm
20:15 16.7 °C 11.2 °C 1012.8 hPa Calm   3.2 km/h 70 % 0.0 mm
20:16 21.7 °C 9.6 °C 1011.7 hPa SW 9.5 km/h 9.5 km/h 46 % 0.0 mm
20:25 16.5 °C 11.0 °C 1013.8 hPa Calm     70 % 0.0 mm
20:26 21.5 °C 9.4 °C 1011.7 hPa SW 5.6 km/h 5.6 km/h 46 % 0.0 mm
20:31 21.3 °C 9.5 °C 1011.7 hPa SW 13.0 km/h 13.0 km/h 47 % 0.0 mm
20:35 16.4 °C 10.9 °C 1013.8 hPa SE 1.6 km/h 3.2 km/h 70 % 0.0 mm
20:36 21.1 °C 9.3 °C 1011.7 hPa WSW 7.4 km/h 7.4 km/h 47 % 0.0 mm
20:41 21.0 °C 9.3 °C 1011.7 hPa West 3.7 km/h 3.7 km/h 47 % 0.0 mm
20:45 16.2 °C 10.7 °C 1013.8 hPa ENE 1.6 km/h 3.2 km/h 70 % 0.0 mm
20:46 20.9 °C 9.5 °C 1011.7 hPa SW 5.0 km/h 5.0 km/h 48 % 0.0 mm
20:51 20.8 °C 9.4 °C 1011.7 hPa SW 5.6 km/h 5.6 km/h 48 % 0.0 mm
20:56 20.7 °C 9.3 °C 1011.7 hPa WSW 5.3 km/h 5.3 km/h 48 % 0.0 mm
21:01 20.6 °C 9.5 °C 1010.7 hPa SW 5.6 km/h 5.6 km/h 49 % 0.0 mm
21:05 15.9 °C 10.4 °C 1013.8 hPa ENE 1.6 km/h 1.6 km/h 70 % 0.0 mm
21:06 20.4 °C 9.3 °C 1010.7 hPa SW 7.4 km/h 7.4 km/h 49 % 0.0 mm
21:11 20.2 °C 9.2 °C 1010.7 hPa SW 5.6 km/h 5.6 km/h 49 % 0.0 mm
21:16 20.1 °C 9.1 °C 1011.7 hPa SW 3.7 km/h 3.7 km/h 49 % 0.0 mm
21:21 20.0 °C 8.9 °C 1011.7 hPa SW 3.7 km/h 3.7 km/h 49 % 0.0 mm
21:25 15.5 °C 10.3 °C 1013.8 hPa Calm     71 % 0.0 mm
21:26 19.9 °C 9.2 °C 1011.7 hPa SW 1.9 km/h   50 % 0.0 mm
21:31 19.8 °C 9.1 °C 1011.7 hPa SSW 5.6 km/h 5.6 km/h 50 % 0.0 mm
21:35 15.3 °C 9.8 °C 1013.8 hPa Calm     70 % 0.0 mm
21:36 19.7 °C 9.0 °C 1011.7 hPa SW 1.9 km/h 2.6 km/h 50 % 0.0 mm
21:41 19.5 °C 8.8 °C 1011.7 hPa Calm     50 % 0.0 mm
21:46 19.5 °C 8.8 °C 1011.7 hPa SSW 1.9 km/h   50 % 0.0 mm
21:51 19.4 °C 8.7 °C 1011.7 hPa WSW 2.3 km/h 2.3 km/h 50 % 0.0 mm
21:55 15.2 °C 10.2 °C 1013.8 hPa Calm   3.2 km/h 72 % 0.0 mm
21:57 19.4 °C 8.7 °C 1011.7 hPa SW 3.9 km/h 3.9 km/h 50 % 0.0 mm
22:02 19.4 °C 8.7 °C 1011.7 hPa WSW 3.7 km/h 3.7 km/h 50 % 0.0 mm
22:05 15.1 °C 10.1 °C 1013.8 hPa Calm     72 % 0.0 mm
22:07 19.3 °C 8.9 °C 1011.7 hPa SW 3.7 km/h 3.7 km/h 51 % 0.0 mm
22:12 19.2 °C 8.8 °C 1011.7 hPa WSW 3.2 km/h 3.2 km/h 51 % 0.0 mm
22:15 14.9 °C 9.9 °C 1013.8 hPa Calm     72 % 0.0 mm
22:17 19.1 °C 8.7 °C 1012.8 hPa Calm     51 % 0.0 mm
22:22 19.0 °C 8.6 °C 1012.8 hPa WSW 1.9 km/h   51 % 0.0 mm
22:25 14.3 °C 9.1 °C 1013.8 hPa South 3.2 km/h 4.8 km/h 71 % 0.0 mm
22:27 18.9 °C 8.8 °C 1012.8 hPa Calm     52 % 0.0 mm
22:32 18.8 °C 8.7 °C 1012.8 hPa Calm     52 % 0.0 mm
22:35 13.9 °C 9.1 °C 1013.8 hPa SW 1.6 km/h 3.2 km/h 73 % 0.0 mm
22:37 18.7 °C 8.6 °C 1012.8 hPa Calm     52 % 0.0 mm
22:42 18.6 °C 8.8 °C 1012.8 hPa Calm     53 % 0.0 mm
22:45 13.8 °C 9.1 °C 1013.8 hPa Calm   3.2 km/h 73 % 0.0 mm
22:47 18.6 °C 8.8 °C 1012.8 hPa Calm     53 % 0.0 mm
22:52 18.5 °C 8.7 °C 1012.8 hPa Calm     53 % 0.0 mm
22:55 13.8 °C 9.2 °C 1013.8 hPa Calm     74 % 0.0 mm
22:57 18.5 °C 8.7 °C 1012.8 hPa ENE 1.9 km/h 2.3 km/h 53 % 0.0 mm
23:02 18.5 °C 9.0 °C 1012.8 hPa Calm     54 % 0.0 mm
23:05 13.9 °C 9.3 °C 1013.8 hPa Calm     74 % 0.0 mm
23:07 18.4 °C 8.9 °C 1012.8 hPa ENE 3.7 km/h 3.7 km/h 54 % 0.0 mm
23:12 18.4 °C 8.9 °C 1012.8 hPa NE 1.9 km/h   54 % 0.0 mm
23:15 13.9 °C 9.3 °C 1013.8 hPa Calm   1.6 km/h 74 % 0.0 mm
23:17 18.3 °C 9.1 °C 1013.8 hPa ESE 4.2 km/h 4.2 km/h 55 % 0.0 mm
23:22 18.3 °C 9.1 °C 1013.8 hPa East 4.7 km/h   55 % 0.0 mm
23:25 13.9 °C 9.6 °C 1013.8 hPa Calm   1.6 km/h 75 % 0.0 mm
23:27 18.2 °C 9.3 °C 1013.8 hPa ENE 5.6 km/h 5.6 km/h 56 % 0.0 mm
23:32 18.1 °C 9.2 °C 1013.8 hPa NNE 7.4 km/h 7.4 km/h 56 % 0.0 mm
23:35 13.7 °C 9.2 °C 1013.8 hPa North 1.6 km/h 3.2 km/h 74 % 0.0 mm
23:37 18.0 °C 9.3 °C 1013.8 hPa NNE 4.2 km/h 4.2 km/h 57 % 0.0 mm
23:42 18.0 °C 9.3 °C 1013.8 hPa NE 3.9 km/h 3.9 km/h 57 % 0.0 mm
23:45 13.7 °C 9.6 °C 1013.8 hPa Calm   1.6 km/h 76 % 0.0 mm
23:47 17.8 °C 9.4 °C 1013.8 hPa ENE 3.9 km/h 3.9 km/h 58 % 0.0 mm
23:52 17.8 °C 9.4 °C 1013.8 hPa ENE 3.7 km/h 3.7 km/h 58 % 0.0 mm
23:55 13.6 °C 9.4 °C 1013.8 hPa Calm     76 % 0.0 mm
23:57 17.6 °C 9.5 °C 1013.8 hPa NE 5.6 km/h 5.6 km/h 59 % 0.0 mm
Meteo Sesrovires
Elogis d' Weather Underground - 3.5 mb

Guio original per  Jim McMurry - jmcmurry@mwt.net Adaptat per a la plantilla per  Wim van der Kuil - Leuven-Template.eu

Trobareu la nostra informacio del temps tambe a:

Weather Underground

AWEKAS